Time;durP1;ratioP1;P1;durP2;ratioP2;P2;SDS_P1;SDS_P2;PMS_P1;PMS_P2;Temp;Humidity;BMP_temperature;BMP_pressure;BME280_temperature;BME280_humidity;BME280_pressure;Samples;Min_cycle;Max_cycle;Signal;HPM_P1;HPM_P2
2023/08/13 00:00:47;;;;;;;0.10;0.10;;;;;;;;;;6136455;23;20067;-93
2023/08/13 00:03:13;;;;;;;0.10;0.10;;;;;;;;;;6159372;23;20017;-93
2023/08/13 00:05:39;;;;;;;0.10;0.10;;;;;;;;;;6135469;23;20017;-93
2023/08/13 00:08:05;;;;;;;0.10;0.10;;;;;;;;;;6135184;23;20016;-96
2023/08/13 00:10:31;;;;;;;0.10;0.10;;;;;;;;;;6135081;23;20144;-94
2023/08/13 00:12:57;;;;;;;0.10;0.10;;;;;;;;;;6135572;23;20055;-95
2023/08/13 00:15:23;;;;;;;0.10;0.10;;;;;;;;;;6111385;23;20099;-93
2023/08/13 00:17:49;;;;;;;0.10;0.10;;;;;;;;;;6135702;23;20024;-92
2023/08/13 00:20:15;;;;;;;0.10;0.10;;;;;;;;;;6135363;23;20013;-93
2023/08/13 00:22:41;;;;;;;0.20;0.20;;;;;;;;;;6134838;23;20017;-93
2023/08/13 00:25:08;;;;;;;0.10;0.10;;;;;;;;;;6135567;23;20020;-94
2023/08/13 00:27:34;;;;;;;0.10;0.10;;;;;;;;;;6159729;23;20013;-93
2023/08/13 00:30:00;;;;;;;0.20;0.20;;;;;;;;;;6135284;23;20013;-93
2023/08/13 00:32:26;;;;;;;0.10;0.10;;;;;;;;;;6135550;23;20108;-91
2023/08/13 00:34:52;;;;;;;0.10;0.10;;;;;;;;;;6135273;23;20020;-92
2023/08/13 00:37:18;;;;;;;0.10;0.10;;;;;;;;;;6159744;23;20451;-92
2023/08/13 00:39:44;;;;;;;0.10;0.10;;;;;;;;;;6159517;23;20023;-92
2023/08/13 00:42:10;;;;;;;0.10;0.10;;;;;;;;;;6135527;23;20092;-92
2023/08/13 00:44:36;;;;;;;0.10;0.10;;;;;;;;;;6135695;23;20048;-94
2023/08/13 00:47:03;;;;;;;0.20;0.20;;;;;;;;;;6136209;23;20351;-93
2023/08/13 00:49:29;;;;;;;0.10;0.10;;;;;;;;;;6136611;23;20020;-94
2023/08/13 00:51:58;;;;;;;0.10;0.10;;;;;;;;;;6116699;23;20015;-94
2023/08/13 00:54:24;;;;;;;0.10;0.10;;;;;;;;;;6142466;23;20061;-94
2023/08/13 00:56:52;;;;;;;0.10;0.10;;;;;;;;;;6142008;23;20020;-94
2023/08/13 00:59:18;;;;;;;0.20;0.20;;;;;;;;;;6143628;23;20028;-92
2023/08/13 01:01:44;;;;;;;0.20;0.20;;;;;;;;;;6137153;23;20036;-93
2023/08/13 01:04:11;;;;;;;0.10;0.10;;;;;;;;;;6135121;23;20013;-92
2023/08/13 01:06:39;;;;;;;0.10;0.10;;;;;;;;;;6135306;23;20020;-93
2023/08/13 01:09:14;;;;;;;0.10;0.10;;;;;;;;;;6160316;23;20013;-93
2023/08/13 01:11:59;;;;;;;0.10;0.10;;;;;;;;;;6134829;23;20013;-94
2023/08/13 01:14:42;;;;;;;0.10;0.10;;;;;;;;;;6134832;23;20467;-92
2023/08/13 01:17:08;;;;;;;0.10;0.10;;;;;;;;;;6135339;23;20017;-94
2023/08/13 01:19:34;;;;;;;0.10;0.10;;;;;;;;;;6135895;23;20425;-93
2023/08/13 01:22:00;;;;;;;0.10;0.10;;;;;;;;;;6160134;23;20024;-94
2023/08/13 01:24:26;;;;;;;0.10;0.10;;;;;;;;;;6135025;23;20116;-91
2023/08/13 01:27:06;;;;;;;0.10;0.10;;;;;;;;;;6160117;23;20028;-93
2023/08/13 01:29:46;;;;;;;0.10;0.10;;;;;;;;;;6135273;23;20056;-94
2023/08/13 01:32:12;;;;;;;0.10;0.10;;;;;;;;;;6184562;23;20092;-95
2023/08/13 01:34:38;;;;;;;0.10;0.10;;;;;;;;;;6134739;23;20013;-95
2023/08/13 01:37:04;;;;;;;0.10;0.10;;;;;;;;;;6133801;23;20013;-96
2023/08/13 01:39:31;;;;;;;0.10;0.10;;;;;;;;;;6134961;23;20100;-93
2023/08/13 01:41:57;;;;;;;0.10;0.10;;;;;;;;;;6159098;23;20095;-94
2023/08/13 01:44:23;;;;;;;0.10;0.10;;;;;;;;;;6135471;23;20013;-94
2023/08/13 01:46:49;;;;;;;0.10;0.10;;;;;;;;;;6160035;23;20082;-94
2023/08/13 01:49:15;;;;;;;0.10;0.10;;;;;;;;;;6134398;23;20099;-94
2023/08/13 01:51:41;;;;;;;0.10;0.10;;;;;;;;;;6135231;23;20039;-94
2023/08/13 01:54:07;;;;;;;0.10;0.10;;;;;;;;;;6135038;23;20031;-92
2023/08/13 01:56:33;;;;;;;0.10;0.10;;;;;;;;;;6135443;23;20340;-93
2023/08/13 01:58:59;;;;;;;0.10;0.10;;;;;;;;;;6134335;23;20016;-94
2023/08/13 02:01:25;;;;;;;0.10;0.10;;;;;;;;;;6134570;23;20325;-93
2023/08/13 02:03:51;;;;;;;0.20;0.20;;;;;;;;;;6134473;23;20013;-94
2023/08/13 02:06:17;;;;;;;0.20;0.20;;;;;;;;;;6134427;23;20013;-95
2023/08/13 02:08:49;;;;;;;0.10;0.10;;;;;;;;;;6139254;23;20009;-93
2023/08/13 02:11:15;;;;;;;0.10;0.10;;;;;;;;;;6140763;23;20020;-95
2023/08/13 02:13:51;;;;;;;0.10;0.10;;;;;;;;;;6138442;23;20009;-95
2023/08/13 02:16:27;;;;;;;0.10;0.10;;;;;;;;;;6140071;23;20151;-95
2023/08/13 02:18:56;;;;;;;0.20;0.20;;;;;;;;;;6141515;23;20064;-94
2023/08/13 02:21:24;;;;;;;0.10;0.10;;;;;;;;;;6134748;23;20048;-95
2023/08/13 02:23:50;;;;;;;0.10;0.10;;;;;;;;;;6134670;23;20017;-91
2023/08/13 02:26:16;;;;;;;0.10;0.10;;;;;;;;;;6158547;23;20036;-93
2023/08/13 02:28:45;;;;;;;0.10;0.10;;;;;;;;;;6134701;23;20108;-94
2023/08/13 02:31:11;;;;;;;0.10;0.10;;;;;;;;;;6134896;23;20013;-92
2023/08/13 02:33:37;;;;;;;0.10;0.10;;;;;;;;;;6134854;23;20009;-93
2023/08/13 02:36:03;;;;;;;0.10;0.10;;;;;;;;;;6133606;23;20017;-92
2023/08/13 02:38:29;;;;;;;0.10;0.10;;;;;;;;;;6134011;23;20039;-93
2023/08/13 02:40:55;;;;;;;0.10;0.10;;;;;;;;;;6134256;23;20055;-93
2023/08/13 02:43:21;;;;;;;0.10;0.10;;;;;;;;;;6158666;23;20040;-94
2023/08/13 02:45:47;;;;;;;0.10;0.10;;;;;;;;;;6158996;23;20048;-93
2023/08/13 02:48:13;;;;;;;0.10;0.10;;;;;;;;;;6158543;23;20124;-92
2023/08/13 02:50:39;;;;;;;0.10;0.10;;;;;;;;;;6134496;23;20017;-92
2023/08/13 02:53:06;;;;;;;0.10;0.10;;;;;;;;;;6134400;23;20012;-92
2023/08/13 02:55:32;;;;;;;0.10;0.10;;;;;;;;;;6184808;23;20008;-93
2023/08/13 02:57:58;;;;;;;0.10;0.10;;;;;;;;;;6134136;23;20395;-93
2023/08/13 03:03:36;;;;;;;0.10;0.10;;;;;;;;;;6167786;23;20055;-95
2023/08/13 03:06:26;;;;;;;0.10;0.10;;;;;;;;;;6136288;23;20055;-94
2023/08/13 03:08:52;;;;;;;0.10;0.10;;;;;;;;;;6137845;23;20100;-94
2023/08/13 03:11:18;;;;;;;0.10;0.10;;;;;;;;;;6139387;23;20013;-94
2023/08/13 03:13:44;;;;;;;0.10;0.10;;;;;;;;;;6138877;23;20076;-94
2023/08/13 03:16:12;;;;;;;0.10;0.10;;;;;;;;;;6136696;23;20020;-93
2023/08/13 03:18:42;;;;;;;0.10;0.10;;;;;;;;;;6137315;23;20017;-93
2023/08/13 03:21:08;;;;;;;0.13;0.13;;;;;;;;;;6159458;23;20020;-94
2023/08/13 03:23:33;;;;;;;0.17;0.17;;;;;;;;;;6134298;23;20308;-93
2023/08/13 03:26:00;;;;;;;0.10;0.10;;;;;;;;;;6158734;23;20021;-94
2023/08/13 03:28:26;;;;;;;0.10;0.10;;;;;;;;;;6134480;23;20009;-95
2023/08/13 03:31:18;;;;;;;0.10;0.10;;;;;;;;;;6134717;23;20457;-93
2023/08/13 03:33:44;;;;;;;0.10;0.10;;;;;;;;;;6134677;23;20111;-94
2023/08/13 03:36:11;;;;;;;0.10;0.10;;;;;;;;;;6159979;23;20017;-94
2023/08/13 03:38:37;;;;;;;0.10;0.10;;;;;;;;;;6160063;23;20013;-95
2023/08/13 03:41:03;;;;;;;0.10;0.10;;;;;;;;;;6136188;23;20052;-93
2023/08/13 03:43:29;;;;;;;0.10;0.10;;;;;;;;;;6134772;23;20020;-94
2023/08/13 03:45:55;;;;;;;0.10;0.10;;;;;;;;;;6134011;23;20088;-92
2023/08/13 03:48:21;;;;;;;0.17;0.17;;;;;;;;;;6135239;23;20079;-94
2023/08/13 03:50:47;;;;;;;0.10;0.10;;;;;;;;;;6136345;23;20013;-94
2023/08/13 03:53:13;;;;;;;0.10;0.10;;;;;;;;;;6136113;23;20009;-94
2023/08/13 03:55:40;;;;;;;0.10;0.10;;;;;;;;;;6111719;23;20013;-94
2023/08/13 03:58:06;;;;;;;0.10;0.10;;;;;;;;;;6160605;23;20384;-94
2023/08/13 04:00:32;;;;;;;0.10;0.10;;;;;;;;;;6135883;23;20044;-94
2023/08/13 04:02:58;;;;;;;0.10;0.10;;;;;;;;;;6136037;23;20021;-93
2023/08/13 04:05:24;;;;;;;0.10;0.10;;;;;;;;;;6160248;23;20064;-92
2023/08/13 04:07:50;;;;;;;0.32;0.32;;;;;;;;;;6135652;23;20021;-94
2023/08/13 04:10:16;;;;;;;0.15;0.15;;;;;;;;;;6136200;23;20084;-94
2023/08/13 04:12:42;;;;;;;0.10;0.10;;;;;;;;;;6135908;23;20025;-94
2023/08/13 04:15:08;;;;;;;0.10;0.10;;;;;;;;;;6160214;23;20009;-95
2023/08/13 04:17:34;;;;;;;0.10;0.10;;;;;;;;;;6135652;23;20017;-95
2023/08/13 04:20:00;;;;;;;0.10;0.10;;;;;;;;;;6160132;23;20017;-95
2023/08/13 04:22:26;;;;;;;0.10;0.10;;;;;;;;;;6160309;23;20059;-93
2023/08/13 04:24:52;;;;;;;0.10;0.10;;;;;;;;;;6135802;23;20021;-92
2023/08/13 04:27:18;;;;;;;0.10;0.10;;;;;;;;;;6160047;23;20017;-93
2023/08/13 04:29:45;;;;;;;0.10;0.10;;;;;;;;;;6160246;23;20013;-93
2023/08/13 04:32:11;;;;;;;0.10;0.10;;;;;;;;;;6159189;23;20032;-94
2023/08/13 04:34:37;;;;;;;0.10;0.10;;;;;;;;;;6160176;23;20443;-93
2023/08/13 04:37:03;;;;;;;0.10;0.10;;;;;;;;;;6159840;23;20096;-93
2023/08/13 04:39:29;;;;;;;0.10;0.10;;;;;;;;;;6135295;23;20056;-91
2023/08/13 04:41:59;;;;;;;0.10;0.10;;;;;;;;;;6135694;23;20017;-92
2023/08/13 04:44:25;;;;;;;0.10;0.10;;;;;;;;;;6134754;23;20017;-93
2023/08/13 04:46:51;;;;;;;0.10;0.10;;;;;;;;;;6135485;23;20043;-92
2023/08/13 04:49:18;;;;;;;0.30;0.30;;;;;;;;;;6135251;23;20035;-92
2023/08/13 04:51:44;;;;;;;0.10;0.10;;;;;;;;;;6135187;23;20013;-92
2023/08/13 04:54:10;;;;;;;0.10;0.10;;;;;;;;;;6135249;23;20020;-92
2023/08/13 04:56:36;;;;;;;0.10;0.10;;;;;;;;;;6134936;23;20017;-91
2023/08/13 04:59:02;;;;;;;0.10;0.10;;;;;;;;;;6135048;23;20082;-93
2023/08/13 05:01:28;;;;;;;0.10;0.10;;;;;;;;;;6110320;23;20024;-92
2023/08/13 05:03:54;;;;;;;0.10;0.10;;;;;;;;;;6159649;23;20343;-94
2023/08/13 05:06:20;;;;;;;0.20;0.20;;;;;;;;;;6135077;23;20023;-93
2023/08/13 05:08:46;;;;;;;0.10;0.10;;;;;;;;;;6135228;23;20013;-92
2023/08/13 05:11:12;;;;;;;0.10;0.10;;;;;;;;;;6159551;23;20040;-93
2023/08/13 05:13:38;;;;;;;0.10;0.10;;;;;;;;;;6135159;23;20013;-91
2023/08/13 05:16:04;;;;;;;0.10;0.10;;;;;;;;;;6159533;23;20013;-93
2023/08/13 05:18:30;;;;;;;0.10;0.10;;;;;;;;;;6134986;23;20013;-93
2023/08/13 05:20:56;;;;;;;1.17;0.20;;;;;;;;;;6135039;23;20048;-93
2023/08/13 05:23:22;;;;;;;0.10;0.10;;;;;;;;;;6159413;23;20443;-93
2023/08/13 05:25:48;;;;;;;0.10;0.10;;;;;;;;;;6135006;23;20095;-92
2023/08/13 05:28:14;;;;;;;0.10;0.10;;;;;;;;;;6159453;23;20040;-92
2023/08/13 05:30:40;;;;;;;0.10;0.10;;;;;;;;;;6159615;23;20060;-92
2023/08/13 05:33:06;;;;;;;0.10;0.10;;;;;;;;;;6134936;23;20020;-93
2023/08/13 05:35:32;;;;;;;0.10;0.10;;;;;;;;;;6134558;23;20016;-93
2023/08/13 05:37:58;;;;;;;0.10;0.10;;;;;;;;;;6134800;23;20024;-93
2023/08/13 05:40:24;;;;;;;0.10;0.10;;;;;;;;;;6159253;23;20017;-93
2023/08/13 05:42:50;;;;;;;0.10;0.10;;;;;;;;;;6134980;23;20017;-95
2023/08/13 05:45:17;;;;;;;0.10;0.10;;;;;;;;;;6159346;23;20431;-93
2023/08/13 05:47:43;;;;;;;0.10;0.10;;;;;;;;;;6134570;23;20040;-93
2023/08/13 05:50:10;;;;;;;0.10;0.10;;;;;;;;;;6134355;23;20078;-94
2023/08/13 05:52:36;;;;;;;0.10;0.10;;;;;;;;;;6134453;23;20020;-92
2023/08/13 05:55:02;;;;;;;0.28;0.28;;;;;;;;;;6134685;23;20013;-93
2023/08/13 05:57:28;;;;;;;0.20;0.20;;;;;;;;;;6134393;23;20147;-92
2023/08/13 05:59:54;;;;;;;0.10;0.10;;;;;;;;;;6134902;23;20044;-94
2023/08/13 06:02:20;;;;;;;0.10;0.10;;;;;;;;;;6134669;23;20020;-94
2023/08/13 06:04:46;;;;;;;0.10;0.10;;;;;;;;;;6159032;23;20008;-93
2023/08/13 06:07:12;;;;;;;0.10;0.10;;;;;;;;;;6134542;23;20147;-94
2023/08/13 06:09:38;;;;;;;0.10;0.10;;;;;;;;;;6135020;23;20246;-93
2023/08/13 06:12:05;;;;;;;0.10;0.10;;;;;;;;;;6158814;23;20258;-94
2023/08/13 06:14:37;;;;;;;0.10;0.10;;;;;;;;;;6135942;23;20020;-95
2023/08/13 06:17:04;;;;;;;0.10;0.10;;;;;;;;;;6134795;23;20317;-94
2023/08/13 06:19:30;;;;;;;0.10;0.10;;;;;;;;;;6134357;23;20028;-93
2023/08/13 06:21:56;;;;;;;0.10;0.10;;;;;;;;;;6137167;23;20345;-93
2023/08/13 06:24:22;;;;;;;0.10;0.10;;;;;;;;;;6139311;23;20446;-90
2023/08/13 06:26:48;;;;;;;0.10;0.10;;;;;;;;;;6134013;23;20049;-93
2023/08/13 06:29:14;;;;;;;0.17;0.17;;;;;;;;;;6158646;23;20031;-93
2023/08/13 06:31:40;;;;;;;0.10;0.10;;;;;;;;;;6134379;23;20016;-93
2023/08/13 06:34:06;;;;;;;0.20;0.20;;;;;;;;;;6133581;23;20009;-90
2023/08/13 06:36:32;;;;;;;0.15;0.15;;;;;;;;;;6133528;23;20075;-94
2023/08/13 06:38:58;;;;;;;0.20;0.20;;;;;;;;;;6133291;23;20013;-94
2023/08/13 06:41:24;;;;;;;0.10;0.10;;;;;;;;;;6134269;23;20024;-91
2023/08/13 06:43:50;;;;;;;0.20;0.20;;;;;;;;;;6134144;23;20024;-90
2023/08/13 06:46:16;;;;;;;0.10;0.10;;;;;;;;;;6157308;23;20017;-89
2023/08/13 06:48:42;;;;;;;0.10;0.10;;;;;;;;;;6157375;23;20017;-89
2023/08/13 06:51:11;;;;;;;0.10;0.10;;;;;;;;;;6133398;23;20075;-92
2023/08/13 06:53:37;;;;;;;0.10;0.10;;;;;;;;;;6133892;23;20040;-89
2023/08/13 06:56:03;;;;;;;0.10;0.10;;;;;;;;;;6157909;23;20373;-91
2023/08/13 06:58:29;;;;;;;0.10;0.10;;;;;;;;;;6133349;23;20021;-94
2023/08/13 07:00:55;;;;;;;0.10;0.10;;;;;;;;;;6133547;23;20013;-92
2023/08/13 07:03:21;;;;;;;0.10;0.10;;;;;;;;;;6133495;23;20067;-92
2023/08/13 07:05:47;;;;;;;0.10;0.10;;;;;;;;;;6133727;23;20013;-92
2023/08/13 07:08:13;;;;;;;0.10;0.10;;;;;;;;;;6182298;23;20017;-92
2023/08/13 07:10:53;;;;;;;0.25;0.20;;;;;;;;;;6159594;23;20505;-95
2023/08/13 07:13:19;;;;;;;0.10;0.10;;;;;;;;;;6157966;23;20013;-93
2023/08/13 07:15:45;;;;;;;0.20;0.20;;;;;;;;;;6134018;23;20020;-94
2023/08/13 07:18:11;;;;;;;0.10;0.10;;;;;;;;;;6133872;23;20152;-94
2023/08/13 07:20:38;;;;;;;0.10;0.10;;;;;;;;;;6133755;23;20025;-92
2023/08/13 07:23:04;;;;;;;0.10;0.10;;;;;;;;;;6135730;23;20009;-94
2023/08/13 07:25:30;;;;;;;0.20;0.20;;;;;;;;;;6136880;23;20047;-94
2023/08/13 07:27:56;;;;;;;0.20;0.20;;;;;;;;;;6135015;23;20070;-95
2023/08/13 07:30:22;;;;;;;0.10;0.10;;;;;;;;;;6135689;23;20039;-93
2023/08/13 07:32:48;;;;;;;0.10;0.10;;;;;;;;;;6135889;23;20013;-93
2023/08/13 07:35:15;;;;;;;0.10;0.10;;;;;;;;;;6136086;23;20067;-94
2023/08/13 07:37:41;;;;;;;0.20;0.20;;;;;;;;;;6136598;23;20021;-95
2023/08/13 07:40:08;;;;;;;0.10;0.10;;;;;;;;;;6136005;23;20020;-92
2023/08/13 07:42:36;;;;;;;0.20;0.20;;;;;;;;;;6134575;23;20393;-92
2023/08/13 07:45:05;;;;;;;0.10;0.10;;;;;;;;;;6135238;23;20121;-92
2023/08/13 07:47:31;;;;;;;0.13;0.13;;;;;;;;;;6134560;23;20059;-93
2023/08/13 07:49:58;;;;;;;0.10;0.10;;;;;;;;;;6135014;23;20442;-92
2023/08/13 07:52:24;;;;;;;0.10;0.10;;;;;;;;;;6159419;23;20013;-91
2023/08/13 07:54:50;;;;;;;0.20;0.20;;;;;;;;;;6134552;23;20465;-89
2023/08/13 07:57:16;;;;;;;0.20;0.20;;;;;;;;;;6183818;23;20024;-90
2023/08/13 07:59:42;;;;;;;0.10;0.10;;;;;;;;;;6158938;23;20094;-89
2023/08/13 08:02:08;;;;;;;0.20;0.20;;;;;;;;;;6134407;23;20013;-88
2023/08/13 08:04:34;;;;;;;0.13;0.13;;;;;;;;;;6185658;23;20024;-88
2023/08/13 08:07:00;;;;;;;0.10;0.10;;;;;;;;;;6185227;23;20013;-88
2023/08/13 08:09:26;;;;;;;0.20;0.20;;;;;;;;;;6159184;23;20044;-89
2023/08/13 08:11:52;;;;;;;0.20;0.20;;;;;;;;;;6158820;23;20084;-90
2023/08/13 08:14:18;;;;;;;0.20;0.20;;;;;;;;;;6134252;23;20016;-89
2023/08/13 08:16:44;;;;;;;0.20;0.20;;;;;;;;;;6134579;23;20091;-90
2023/08/13 08:19:10;;;;;;;0.20;0.20;;;;;;;;;;6134643;23;20021;-89
2023/08/13 08:21:37;;;;;;;0.20;0.20;;;;;;;;;;6134351;23;20071;-88
2023/08/13 08:24:03;;;;;;;0.20;0.20;;;;;;;;;;6185316;23;20108;-88
2023/08/13 08:26:29;;;;;;;0.20;0.20;;;;;;;;;;6184926;23;20459;-91
2023/08/13 08:28:55;;;;;;;0.20;0.20;;;;;;;;;;6159188;23;20135;-89
2023/08/13 08:31:21;;;;;;;0.20;0.20;;;;;;;;;;6159084;23;20047;-88
2023/08/13 08:33:47;;;;;;;0.20;0.20;;;;;;;;;;6133442;23;20063;-89
2023/08/13 08:36:13;;;;;;;0.20;0.20;;;;;;;;;;6134209;23;20040;-89
2023/08/13 08:38:39;;;;;;;0.20;0.20;;;;;;;;;;6158637;23;20447;-89
2023/08/13 08:41:05;;;;;;;0.20;0.20;;;;;;;;;;6158320;23;20017;-87
2023/08/13 08:43:34;;;;;;;0.20;0.20;;;;;;;;;;6158463;23;20013;-89
2023/08/13 08:46:00;;;;;;;0.20;0.20;;;;;;;;;;6158908;23;20071;-88
2023/08/13 08:48:27;;;;;;;0.20;0.20;;;;;;;;;;6133294;23;20343;-88
2023/08/13 08:50:53;;;;;;;0.20;0.20;;;;;;;;;;6158561;23;20281;-88
2023/08/13 08:53:19;;;;;;;0.20;0.20;;;;;;;;;;6134243;23;20342;-88
2023/08/13 08:55:47;;;;;;;0.20;0.20;;;;;;;;;;6134210;23;20371;-89
2023/08/13 08:58:13;;;;;;;0.20;0.20;;;;;;;;;;6182809;23;20091;-88
2023/08/13 09:00:39;;;;;;;0.20;0.20;;;;;;;;;;6133839;23;20017;-89
2023/08/13 09:03:06;;;;;;;0.20;0.20;;;;;;;;;;6134158;23;20013;-89
2023/08/13 09:05:33;;;;;;;0.20;0.20;;;;;;;;;;6134144;23;20009;-89
2023/08/13 09:07:59;;;;;;;0.20;0.20;;;;;;;;;;6158786;23;20093;-88
2023/08/13 09:10:25;;;;;;;0.20;0.20;;;;;;;;;;6133787;23;20136;-89
2023/08/13 09:12:53;;;;;;;0.20;0.20;;;;;;;;;;6133785;23;20005;-89
2023/08/13 09:15:19;;;;;;;0.20;0.20;;;;;;;;;;6133639;23;20013;-89
2023/08/13 09:17:45;;;;;;;0.20;0.20;;;;;;;;;;6184569;23;20434;-89
2023/08/13 09:20:18;;;;;;;0.20;0.20;;;;;;;;;;6182911;23;20039;-88
2023/08/13 09:22:45;;;;;;;0.20;0.20;;;;;;;;;;6158208;23;20474;-89
2023/08/13 09:25:11;;;;;;;0.30;0.30;;;;;;;;;;6134122;23;20389;-88
2023/08/13 09:27:37;;;;;;;0.20;0.20;;;;;;;;;;6158304;23;20098;-88
2023/08/13 09:30:03;;;;;;;0.20;0.20;;;;;;;;;;6158002;23;20009;-88
2023/08/13 09:32:29;;;;;;;0.47;0.47;;;;;;;;;;6133481;23;20023;-89
2023/08/13 09:34:55;;;;;;;0.20;0.20;;;;;;;;;;6133719;23;20092;-89
2023/08/13 09:37:23;;;;;;;0.20;0.20;;;;;;;;;;6184482;23;20044;-89
2023/08/13 09:39:49;;;;;;;0.20;0.20;;;;;;;;;;6133651;23;20094;-88
2023/08/13 09:42:15;;;;;;;0.20;0.20;;;;;;;;;;6157887;23;20021;-89
2023/08/13 09:44:41;;;;;;;0.20;0.20;;;;;;;;;;6157801;23;20053;-89
2023/08/13 09:47:07;;;;;;;0.20;0.20;;;;;;;;;;6133128;23;20013;-89
2023/08/13 09:49:34;;;;;;;0.20;0.20;;;;;;;;;;6133373;23;20355;-89
2023/08/13 09:52:01;;;;;;;0.60;0.60;;;;;;;;;;6158285;23;20091;-89
2023/08/13 09:54:39;;;;;;;0.25;0.25;;;;;;;;;;6158098;23;20013;-89
2023/08/13 09:57:05;;;;;;;0.20;0.20;;;;;;;;;;6182554;23;20354;-89
2023/08/13 09:59:36;;;;;;;0.20;0.20;;;;;;;;;;6158945;23;20132;-89
2023/08/13 10:02:02;;;;;;;0.20;0.20;;;;;;;;;;6159126;23;20021;-89
2023/08/13 10:04:28;;;;;;;0.20;0.20;;;;;;;;;;6133339;23;20151;-89
2023/08/13 10:06:55;;;;;;;0.20;0.20;;;;;;;;;;6182076;23;20116;-89
2023/08/13 10:09:22;;;;;;;0.20;0.20;;;;;;;;;;6157866;23;20013;-89
2023/08/13 10:11:47;;;;;;;0.20;0.20;;;;;;;;;;6157417;23;20016;-89
2023/08/13 10:14:13;;;;;;;0.20;0.20;;;;;;;;;;6159468;23;20020;-89
2023/08/13 10:16:39;;;;;;;0.20;0.20;;;;;;;;;;6133479;23;20052;-88
2023/08/13 10:19:06;;;;;;;0.20;0.20;;;;;;;;;;6133543;23;20075;-89
2023/08/13 10:21:38;;;;;;;0.20;0.20;;;;;;;;;;6133071;23;20036;-88
2023/08/13 10:24:05;;;;;;;0.20;0.20;;;;;;;;;;6158440;23;20463;-89
2023/08/13 10:26:31;;;;;;;0.20;0.20;;;;;;;;;;6157863;23;20013;-89
2023/08/13 10:28:57;;;;;;;0.20;0.20;;;;;;;;;;6132736;23;20013;-89
2023/08/13 10:31:23;;;;;;;0.20;0.20;;;;;;;;;;6158034;23;20015;-89
2023/08/13 10:34:00;;;;;;;0.30;0.30;;;;;;;;;;6183937;23;20027;-89
2023/08/13 10:36:39;;;;;;;0.20;0.20;;;;;;;;;;6133430;23;20028;-89
2023/08/13 10:39:24;;;;;;;0.20;0.20;;;;;;;;;;6157615;23;20067;-88
2023/08/13 10:41:50;;;;;;;0.38;0.38;;;;;;;;;;6132668;23;20028;-89
2023/08/13 10:44:40;;;;;;;0.20;0.20;;;;;;;;;;6182193;23;20013;-89
2023/08/13 10:47:06;;;;;;;0.20;0.20;;;;;;;;;;6157544;23;20024;-88
2023/08/13 10:49:32;;;;;;;0.25;0.25;;;;;;;;;;6133285;23;20021;-89
2023/08/13 10:52:01;;;;;;;0.20;0.20;;;;;;;;;;6132835;23;20057;-88
2023/08/13 10:54:27;;;;;;;0.20;0.20;;;;;;;;;;6157407;23;20466;-89
2023/08/13 10:56:57;;;;;;;0.20;0.20;;;;;;;;;;6132877;23;20008;-88
2023/08/13 10:59:33;;;;;;;0.20;0.20;;;;;;;;;;6157431;23;20060;-88
2023/08/13 11:02:09;;;;;;;0.20;0.20;;;;;;;;;;6157307;23;20021;-88
2023/08/13 11:04:35;;;;;;;0.20;0.20;;;;;;;;;;6182561;23;20195;-88
2023/08/13 11:07:01;;;;;;;0.20;0.20;;;;;;;;;;6132460;23;20079;-88
2023/08/13 11:09:29;;;;;;;0.20;0.20;;;;;;;;;;6133209;23;20005;-88
2023/08/13 11:11:55;;;;;;;0.20;0.20;;;;;;;;;;6183394;23;20473;-88
2023/08/13 11:14:21;;;;;;;0.20;0.20;;;;;;;;;;6132796;23;20013;-88
2023/08/13 11:16:47;;;;;;;0.15;0.15;;;;;;;;;;6157325;23;20076;-88
2023/08/13 11:19:13;;;;;;;0.20;0.20;;;;;;;;;;6132519;23;20316;-88
2023/08/13 11:21:39;;;;;;;0.20;0.20;;;;;;;;;;6157244;23;20017;-88
2023/08/13 11:24:07;;;;;;;0.20;0.20;;;;;;;;;;6132881;23;20013;-89
2023/08/13 11:26:34;;;;;;;0.20;0.20;;;;;;;;;;6157379;23;20021;-90
2023/08/13 11:29:00;;;;;;;0.20;0.20;;;;;;;;;;6132415;23;20024;-89
2023/08/13 11:31:26;;;;;;;0.20;0.20;;;;;;;;;;6157516;23;20013;-89
2023/08/13 11:33:52;;;;;;;0.20;0.20;;;;;;;;;;6157372;23;20009;-89
2023/08/13 11:36:18;;;;;;;0.20;0.20;;;;;;;;;;6157055;23;20013;-89
2023/08/13 11:38:44;;;;;;;0.20;0.20;;;;;;;;;;6132675;23;20005;-88
2023/08/13 11:41:13;;;;;;;0.20;0.20;;;;;;;;;;6157843;23;20040;-89
2023/08/13 11:43:39;;;;;;;0.20;0.20;;;;;;;;;;6157284;23;20013;-89
2023/08/13 11:46:05;;;;;;;0.10;0.10;;;;;;;;;;6157050;23;20351;-89
2023/08/13 11:48:32;;;;;;;0.20;0.20;;;;;;;;;;6132546;23;20238;-89
2023/08/13 11:51:11;;;;;;;0.20;0.20;;;;;;;;;;6133043;23;20044;-88
2023/08/13 11:53:43;;;;;;;0.20;0.20;;;;;;;;;;6157429;23;20009;-89
2023/08/13 11:56:13;;;;;;;0.20;0.20;;;;;;;;;;6157268;23;20009;-88
2023/08/13 11:58:39;;;;;;;0.20;0.20;;;;;;;;;;6157461;23;20005;-89
2023/08/13 12:01:05;;;;;;;0.10;0.10;;;;;;;;;;6157796;23;20013;-88
2023/08/13 12:03:35;;;;;;;0.10;0.10;;;;;;;;;;6181822;23;20502;-89
2023/08/13 12:06:01;;;;;;;0.20;0.20;;;;;;;;;;6157048;23;20463;-89
2023/08/13 12:08:28;;;;;;;0.10;0.10;;;;;;;;;;6157961;23;20016;-88
2023/08/13 12:10:54;;;;;;;0.10;0.10;;;;;;;;;;6135117;23;20016;-88
2023/08/13 12:13:20;;;;;;;0.20;0.20;;;;;;;;;;6134819;23;20089;-88
2023/08/13 12:15:46;;;;;;;0.20;0.20;;;;;;;;;;6134603;23;20359;-89
2023/08/13 12:18:12;;;;;;;0.20;0.20;;;;;;;;;;6134410;23;20017;-89
2023/08/13 12:20:38;;;;;;;0.10;0.10;;;;;;;;;;6185006;23;20028;-89
2023/08/13 12:23:04;;;;;;;0.20;0.20;;;;;;;;;;6158830;23;20075;-89
2023/08/13 12:25:30;;;;;;;0.10;0.10;;;;;;;;;;6158953;23;20024;-89
2023/08/13 12:27:55;;;;;;;0.20;0.20;;;;;;;;;;6185114;23;20052;-89
2023/08/13 12:30:22;;;;;;;0.10;0.10;;;;;;;;;;6183580;23;20017;-89
2023/08/13 12:32:47;;;;;;;0.10;0.10;;;;;;;;;;6159283;23;20013;-88
2023/08/13 12:35:13;;;;;;;0.13;0.13;;;;;;;;;;6158842;23;20093;-89
2023/08/13 12:37:39;;;;;;;0.20;0.20;;;;;;;;;;6159059;23;20020;-89
2023/08/13 12:40:09;;;;;;;0.10;0.10;;;;;;;;;;6134170;23;20020;-88
2023/08/13 12:42:35;;;;;;;0.10;0.10;;;;;;;;;;6133900;23;20506;-89
2023/08/13 12:45:01;;;;;;;0.20;0.20;;;;;;;;;;6158965;23;20049;-89
2023/08/13 12:47:27;;;;;;;0.10;0.10;;;;;;;;;;6133751;23;20105;-88
2023/08/13 12:49:54;;;;;;;0.20;0.20;;;;;;;;;;6134431;23;20021;-88
2023/08/13 12:52:20;;;;;;;0.10;0.10;;;;;;;;;;6134451;23;20024;-89
2023/08/13 12:54:46;;;;;;;0.15;0.15;;;;;;;;;;6158492;23;20009;-88
2023/08/13 12:57:12;;;;;;;0.20;0.20;;;;;;;;;;6158717;23;20048;-88
2023/08/13 12:59:38;;;;;;;0.10;0.10;;;;;;;;;;6158644;23;20013;-88
2023/08/13 13:02:04;;;;;;;0.10;0.10;;;;;;;;;;6158396;23;20056;-88
2023/08/13 13:04:30;;;;;;;0.20;0.20;;;;;;;;;;6133667;23;20450;-88
2023/08/13 13:06:57;;;;;;;0.20;0.20;;;;;;;;;;6182923;23;20009;-89
2023/08/13 13:09:22;;;;;;;0.20;0.20;;;;;;;;;;6133637;23;20024;-88
2023/08/13 13:11:48;;;;;;;0.10;0.10;;;;;;;;;;6133875;23;20013;-88
2023/08/13 13:14:14;;;;;;;0.17;0.17;;;;;;;;;;6159014;23;20285;-89
2023/08/13 13:16:40;;;;;;;0.10;0.10;;;;;;;;;;6158197;23;20020;-89
2023/08/13 13:19:06;;;;;;;0.10;0.10;;;;;;;;;;6158048;23;20368;-88
2023/08/13 13:21:32;;;;;;;0.10;0.10;;;;;;;;;;6158278;23;20228;-89
2023/08/13 13:23:58;;;;;;;0.20;0.20;;;;;;;;;;6183328;23;20020;-88
2023/08/13 13:26:24;;;;;;;0.10;0.10;;;;;;;;;;6158064;23;20091;-89
2023/08/13 13:28:50;;;;;;;0.10;0.10;;;;;;;;;;6158244;23;20149;-88
2023/08/13 13:31:16;;;;;;;0.10;0.10;;;;;;;;;;6158693;23;20160;-88
2023/08/13 13:33:42;;;;;;;0.10;0.10;;;;;;;;;;6133717;23;20214;-89
2023/08/13 13:36:08;;;;;;;0.10;0.10;;;;;;;;;;6133483;23;20391;-88
2023/08/13 13:38:35;;;;;;;0.10;0.10;;;;;;;;;;6158316;23;20116;-89
2023/08/13 13:41:01;;;;;;;0.10;0.10;;;;;;;;;;6158082;23;20509;-89
2023/08/13 13:43:27;;;;;;;0.10;0.10;;;;;;;;;;6158157;23;20376;-88
2023/08/13 13:45:53;;;;;;;0.10;0.10;;;;;;;;;;6158030;23;20013;-88
2023/08/13 13:48:19;;;;;;;0.17;0.17;;;;;;;;;;6133342;23;20013;-89
2023/08/13 13:50:45;;;;;;;0.10;0.10;;;;;;;;;;6133692;23;20106;-89
2023/08/13 13:53:11;;;;;;;0.20;0.20;;;;;;;;;;6158147;23;20284;-89
2023/08/13 13:55:37;;;;;;;0.20;0.20;;;;;;;;;;6158062;23;20063;-89
2023/08/13 13:58:05;;;;;;;0.20;0.20;;;;;;;;;;6158005;23;20017;-88
2023/08/13 14:00:31;;;;;;;0.10;0.10;;;;;;;;;;6133541;23;20451;-88
2023/08/13 14:02:57;;;;;;;0.20;0.20;;;;;;;;;;6157959;23;20020;-88
2023/08/13 14:05:23;;;;;;;0.20;0.20;;;;;;;;;;6182492;23;20378;-89
2023/08/13 14:07:49;;;;;;;0.20;0.20;;;;;;;;;;6158308;23;20019;-89
2023/08/13 14:10:15;;;;;;;0.20;0.20;;;;;;;;;;6157987;23;20043;-88
2023/08/13 14:12:41;;;;;;;0.20;0.20;;;;;;;;;;6133757;23;20015;-89
2023/08/13 14:15:07;;;;;;;0.40;0.40;;;;;;;;;;6182436;23;20013;-89
2023/08/13 14:17:33;;;;;;;0.20;0.20;;;;;;;;;;6182397;23;20445;-88
2023/08/13 14:19:59;;;;;;;0.20;0.20;;;;;;;;;;6157788;23;20113;-88
2023/08/13 14:22:25;;;;;;;0.10;0.10;;;;;;;;;;6157827;23;20017;-89
2023/08/13 14:24:51;;;;;;;0.20;0.20;;;;;;;;;;6182274;23;20123;-88
2023/08/13 14:27:17;;;;;;;0.47;0.47;;;;;;;;;;6184316;23;20045;-88
2023/08/13 14:29:43;;;;;;;0.10;0.10;;;;;;;;;;6133269;23;20474;-89
2023/08/13 14:32:09;;;;;;;0.20;0.20;;;;;;;;;;6182075;23;20021;-89
2023/08/13 14:34:35;;;;;;;0.20;0.20;;;;;;;;;;6132981;23;20017;-89
2023/08/13 14:37:01;;;;;;;0.13;0.13;;;;;;;;;;6133501;23;20075;-88
2023/08/13 14:39:27;;;;;;;0.10;0.10;;;;;;;;;;6157916;23;20013;-88
2023/08/13 14:41:53;;;;;;;0.10;0.10;;;;;;;;;;6157531;23;20348;-89
2023/08/13 14:44:18;;;;;;;0.10;0.10;;;;;;;;;;6157812;23;20017;-89